sensor_id;sensor_type;location;lat;lon;timestamp;temperature;humidity
21001;DHT22;10658;50.920;12.238;2022-12-29T00:04:33;8.00;99.90
21001;DHT22;10658;50.920;12.238;2022-12-29T00:19:25;8.20;99.90
21001;DHT22;10658;50.920;12.238;2022-12-29T00:50:42;9.00;99.90
21001;DHT22;10658;50.920;12.238;2022-12-29T01:00:08;9.10;99.90
21001;DHT22;10658;50.920;12.238;2022-12-29T01:04:19;9.10;99.90
21001;DHT22;10658;50.920;12.238;2022-12-29T01:13:45;9.20;99.90
21001;DHT22;10658;50.920;12.238;2022-12-29T01:18:25;9.20;99.90
21001;DHT22;10658;50.920;12.238;2022-12-29T01:22:34;9.10;99.90
21001;DHT22;10658;50.920;12.238;2022-12-29T01:31:44;9.00;99.90
21001;DHT22;10658;50.920;12.238;2022-12-29T01:52:09;8.80;99.90
21001;DHT22;10658;50.920;12.238;2022-12-29T01:56:47;9.00;99.90
21001;DHT22;10658;50.920;12.238;2022-12-29T02:02:07;9.00;99.90
21001;DHT22;10658;50.920;12.238;2022-12-29T02:06:29;9.00;99.90
21001;DHT22;10658;50.920;12.238;2022-12-29T02:10:35;8.90;99.90
21001;DHT22;10658;50.920;12.238;2022-12-29T02:14:40;9.00;99.90
21001;DHT22;10658;50.920;12.238;2022-12-29T02:37:27;9.00;99.90
21001;DHT22;10658;50.920;12.238;2022-12-29T02:41:58;9.00;99.90
21001;DHT22;10658;50.920;12.238;2022-12-29T02:46:19;8.90;99.90
21001;DHT22;10658;50.920;12.238;2022-12-29T02:50:40;9.00;99.90
21001;DHT22;10658;50.920;12.238;2022-12-29T02:54:54;9.00;99.90
21001;DHT22;10658;50.920;12.238;2022-12-29T02:59:48;8.90;99.90
21001;DHT22;10658;50.920;12.238;2022-12-29T03:08:23;8.90;99.90
21001;DHT22;10658;50.920;12.238;2022-12-29T03:17:23;9.00;99.90
21001;DHT22;10658;50.920;12.238;2022-12-29T03:21:37;9.00;99.90
21001;DHT22;10658;50.920;12.238;2022-12-29T03:26:08;9.20;99.90
21001;DHT22;10658;50.920;12.238;2022-12-29T03:30:15;9.20;99.90
21001;DHT22;10658;50.920;12.238;2022-12-29T03:34:19;9.20;99.90
21001;DHT22;10658;50.920;12.238;2022-12-29T03:38:35;9.20;99.90
21001;DHT22;10658;50.920;12.238;2022-12-29T03:42:37;9.20;99.90
21001;DHT22;10658;50.920;12.238;2022-12-29T03:46:40;9.20;99.90
21001;DHT22;10658;50.920;12.238;2022-12-29T03:50:44;9.30;99.90
21001;DHT22;10658;50.920;12.238;2022-12-29T03:54:45;9.30;99.90
21001;DHT22;10658;50.920;12.238;2022-12-29T04:04:10;9.30;99.90
21001;DHT22;10658;50.920;12.238;2022-12-29T04:08:13;9.30;99.90
21001;DHT22;10658;50.920;12.238;2022-12-29T04:12:16;9.40;99.90
21001;DHT22;10658;50.920;12.238;2022-12-29T04:16:18;9.40;99.90
21001;DHT22;10658;50.920;12.238;2022-12-29T04:20:21;9.40;99.90
21001;DHT22;10658;50.920;12.238;2022-12-29T04:24:44;9.50;99.90
21001;DHT22;10658;50.920;12.238;2022-12-29T04:28:50;9.50;99.90
21001;DHT22;10658;50.920;12.238;2022-12-29T04:33:22;9.50;99.90
21001;DHT22;10658;50.920;12.238;2022-12-29T04:37:24;9.60;99.90
21001;DHT22;10658;50.920;12.238;2022-12-29T04:41:25;9.60;99.90
21001;DHT22;10658;50.920;12.238;2022-12-29T04:45:28;9.50;99.90
21001;DHT22;10658;50.920;12.238;2022-12-29T04:49:45;9.50;99.90
21001;DHT22;10658;50.920;12.238;2022-12-29T04:54:06;9.50;99.90
21001;DHT22;10658;50.920;12.238;2022-12-29T04:58:09;9.60;99.90
21001;DHT22;10658;50.920;12.238;2022-12-29T05:02:11;9.60;99.90
21001;DHT22;10658;50.920;12.238;2022-12-29T05:06:13;9.60;99.90
21001;DHT22;10658;50.920;12.238;2022-12-29T05:15:50;9.60;99.90
21001;DHT22;10658;50.920;12.238;2022-12-29T05:20:05;9.70;99.90
21001;DHT22;10658;50.920;12.238;2022-12-29T05:24:48;9.70;99.90
21001;DHT22;10658;50.920;12.238;2022-12-29T05:30:15;9.60;99.90
21001;DHT22;10658;50.920;12.238;2022-12-29T05:34:20;9.60;99.90
21001;DHT22;10658;50.920;12.238;2022-12-29T05:43:34;9.60;99.90
21001;DHT22;10658;50.920;12.238;2022-12-29T05:53:42;9.50;99.90
21001;DHT22;10658;50.920;12.238;2022-12-29T05:57:58;9.40;99.90
21001;DHT22;10658;50.920;12.238;2022-12-29T06:02:31;9.30;99.90
21001;DHT22;10658;50.920;12.238;2022-12-29T06:23:07;9.40;99.90
21001;DHT22;10658;50.920;12.238;2022-12-29T06:32:18;9.50;99.90
21001;DHT22;10658;50.920;12.238;2022-12-29T07:03:12;9.50;99.90
21001;DHT22;10658;50.920;12.238;2022-12-29T07:07:34;9.40;99.90
21001;DHT22;10658;50.920;12.238;2022-12-29T07:12:08;9.50;99.90
21001;DHT22;10658;50.920;12.238;2022-12-29T07:16:34;9.50;99.90
21001;DHT22;10658;50.920;12.238;2022-12-29T07:20:58;9.50;99.90
21001;DHT22;10658;50.920;12.238;2022-12-29T07:30:41;9.50;99.90
21001;DHT22;10658;50.920;12.238;2022-12-29T07:35:39;9.60;99.90
21001;DHT22;10658;50.920;12.238;2022-12-29T07:45:23;10.00;99.90
21001;DHT22;10658;50.920;12.238;2022-12-29T07:58:57;10.30;99.90
21001;DHT22;10658;50.920;12.238;2022-12-29T08:03:15;10.20;99.90
21001;DHT22;10658;50.920;12.238;2022-12-29T08:07:50;10.30;99.90
21001;DHT22;10658;50.920;12.238;2022-12-29T08:12:14;10.30;99.90
21001;DHT22;10658;50.920;12.238;2022-12-29T08:16:48;10.30;99.90
21001;DHT22;10658;50.920;12.238;2022-12-29T08:21:57;10.30;99.90
21001;DHT22;10658;50.920;12.238;2022-12-29T08:26:12;10.40;99.90
21001;DHT22;10658;50.920;12.238;2022-12-29T08:30:19;10.40;99.90
21001;DHT22;10658;50.920;12.238;2022-12-29T08:34:46;10.40;99.90
21001;DHT22;10658;50.920;12.238;2022-12-29T08:38:59;10.40;99.90
21001;DHT22;10658;50.920;12.238;2022-12-29T08:43:37;10.50;99.90
21001;DHT22;10658;50.920;12.238;2022-12-29T08:48:13;10.40;99.90
21001;DHT22;10658;50.920;12.238;2022-12-29T08:53:02;10.50;99.90
21001;DHT22;10658;50.920;12.238;2022-12-29T08:57:42;10.30;99.90
21001;DHT22;10658;50.920;12.238;2022-12-29T09:02:22;10.20;99.90
21001;DHT22;10658;50.920;12.238;2022-12-29T09:06:56;10.00;99.90
21001;DHT22;10658;50.920;12.238;2022-12-29T09:11:33;10.00;99.90
21001;DHT22;10658;50.920;12.238;2022-12-29T09:16:05;10.10;99.90
21001;DHT22;10658;50.920;12.238;2022-12-29T09:20:31;10.20;99.90
21001;DHT22;10658;50.920;12.238;2022-12-29T09:24:56;10.30;99.90
21001;DHT22;10658;50.920;12.238;2022-12-29T09:29:33;10.30;99.90
21001;DHT22;10658;50.920;12.238;2022-12-29T09:34:00;10.40;99.90
21001;DHT22;10658;50.920;12.238;2022-12-29T09:38:12;10.40;99.90
21001;DHT22;10658;50.920;12.238;2022-12-29T09:42:38;10.40;99.90
21001;DHT22;10658;50.920;12.238;2022-12-29T09:47:09;10.50;99.90
21001;DHT22;10658;50.920;12.238;2022-12-29T09:51:50;10.50;99.90
21001;DHT22;10658;50.920;12.238;2022-12-29T09:56:45;10.50;99.90
21001;DHT22;10658;50.920;12.238;2022-12-29T10:01:02;10.60;99.90
21001;DHT22;10658;50.920;12.238;2022-12-29T10:23:36;11.30;99.90
21001;DHT22;10658;50.920;12.238;2022-12-29T10:27:51;11.40;99.90
21001;DHT22;10658;50.920;12.238;2022-12-29T10:32:30;11.40;99.90
21001;DHT22;10658;50.920;12.238;2022-12-29T10:36:55;11.40;99.90
21001;DHT22;10658;50.920;12.238;2022-12-29T10:46:33;11.50;99.90
21001;DHT22;10658;50.920;12.238;2022-12-29T10:51:04;11.50;99.90
21001;DHT22;10658;50.920;12.238;2022-12-29T10:55:29;11.60;99.90
21001;DHT22;10658;50.920;12.238;2022-12-29T10:59:46;11.70;99.90
21001;DHT22;10658;50.920;12.238;2022-12-29T11:08:33;11.80;99.90
21001;DHT22;10658;50.920;12.238;2022-12-29T11:22:29;11.80;99.90
21001;DHT22;10658;50.920;12.238;2022-12-29T11:26:48;11.80;99.90
21001;DHT22;10658;50.920;12.238;2022-12-29T11:31:26;11.90;99.90
21001;DHT22;10658;50.920;12.238;2022-12-29T11:45:33;11.90;99.90
21001;DHT22;10658;50.920;12.238;2022-12-29T11:49:59;11.80;99.90
21001;DHT22;10658;50.920;12.238;2022-12-29T11:59:21;11.80;99.90
21001;DHT22;10658;50.920;12.238;2022-12-29T12:04:05;11.80;99.90
21001;DHT22;10658;50.920;12.238;2022-12-29T12:13:41;11.90;99.90
21001;DHT22;10658;50.920;12.238;2022-12-29T12:28:36;11.90;99.90
21001;DHT22;10658;50.920;12.238;2022-12-29T12:33:04;11.90;99.90
21001;DHT22;10658;50.920;12.238;2022-12-29T12:42:15;12.00;99.90
21001;DHT22;10658;50.920;12.238;2022-12-29T12:47:01;12.00;99.90
21001;DHT22;10658;50.920;12.238;2022-12-29T13:34:09;11.90;99.90
21001;DHT22;10658;50.920;12.238;2022-12-29T13:38:29;11.70;99.90
21001;DHT22;10658;50.920;12.238;2022-12-29T13:42:37;11.50;99.90
21001;DHT22;10658;50.920;12.238;2022-12-29T13:52:07;11.30;99.90
21001;DHT22;10658;50.920;12.238;2022-12-29T13:57:02;11.30;99.90
21001;DHT22;10658;50.920;12.238;2022-12-29T14:11:01;11.20;99.90
21001;DHT22;10658;50.920;12.238;2022-12-29T14:15:30;11.30;99.90
21001;DHT22;10658;50.920;12.238;2022-12-29T14:19:38;11.20;99.90
21001;DHT22;10658;50.920;12.238;2022-12-29T14:23:50;11.20;99.90
21001;DHT22;10658;50.920;12.238;2022-12-29T14:28:29;11.00;99.90
21001;DHT22;10658;50.920;12.238;2022-12-29T14:33:12;11.10;99.90
21001;DHT22;10658;50.920;12.238;2022-12-29T14:37:41;11.10;99.90
21001;DHT22;10658;50.920;12.238;2022-12-29T14:42:27;11.10;99.90
21001;DHT22;10658;50.920;12.238;2022-12-29T14:47:03;11.00;99.90
21001;DHT22;10658;50.920;12.238;2022-12-29T14:51:34;11.10;99.90
21001;DHT22;10658;50.920;12.238;2022-12-29T14:59:46;10.90;99.90
21001;DHT22;10658;50.920;12.238;2022-12-29T15:04:00;10.80;99.90
21001;DHT22;10658;50.920;12.238;2022-12-29T15:13:00;10.50;99.90
21001;DHT22;10658;50.920;12.238;2022-12-29T15:17:44;10.40;99.90
21001;DHT22;10658;50.920;12.238;2022-12-29T15:26:43;10.20;99.90
21001;DHT22;10658;50.920;12.238;2022-12-29T15:31:04;10.10;99.90
21001;DHT22;10658;50.920;12.238;2022-12-29T15:35:37;10.10;99.90
21001;DHT22;10658;50.920;12.238;2022-12-29T15:39:44;10.00;99.90
21001;DHT22;10658;50.920;12.238;2022-12-29T15:44:41;9.90;99.90
21001;DHT22;10658;50.920;12.238;2022-12-29T15:49:08;9.80;99.90
21001;DHT22;10658;50.920;12.238;2022-12-29T15:53:34;9.90;99.90
21001;DHT22;10658;50.920;12.238;2022-12-29T15:57:49;9.80;99.90
21001;DHT22;10658;50.920;12.238;2022-12-29T16:02:27;9.80;99.90
21001;DHT22;10658;50.920;12.238;2022-12-29T16:11:25;9.60;99.90
21001;DHT22;10658;50.920;12.238;2022-12-29T16:15:36;9.60;99.90
21001;DHT22;10658;50.920;12.238;2022-12-29T16:19:50;9.60;99.90
21001;DHT22;10658;50.920;12.238;2022-12-29T16:23:55;9.50;99.90
21001;DHT22;10658;50.920;12.238;2022-12-29T16:28:34;9.50;99.90
21001;DHT22;10658;50.920;12.238;2022-12-29T16:37:39;9.30;99.90
21001;DHT22;10658;50.920;12.238;2022-12-29T16:41:43;9.20;99.90
21001;DHT22;10658;50.920;12.238;2022-12-29T16:46:29;9.00;99.90
21001;DHT22;10658;50.920;12.238;2022-12-29T16:56:00;8.70;99.90
21001;DHT22;10658;50.920;12.238;2022-12-29T17:00:24;8.50;99.90
21001;DHT22;10658;50.920;12.238;2022-12-29T17:04:36;8.30;99.90
21001;DHT22;10658;50.920;12.238;2022-12-29T17:08:55;8.20;99.90
21001;DHT22;10658;50.920;12.238;2022-12-29T17:13:58;8.00;99.90
21001;DHT22;10658;50.920;12.238;2022-12-29T17:18:31;7.90;99.90
21001;DHT22;10658;50.920;12.238;2022-12-29T17:22:57;7.80;99.90
21001;DHT22;10658;50.920;12.238;2022-12-29T17:27:16;7.80;99.90
21001;DHT22;10658;50.920;12.238;2022-12-29T17:31:40;7.90;99.90
21001;DHT22;10658;50.920;12.238;2022-12-29T17:35:45;8.00;99.90
21001;DHT22;10658;50.920;12.238;2022-12-29T17:40:00;8.10;99.90
21001;DHT22;10658;50.920;12.238;2022-12-29T17:44:28;8.30;99.90
21001;DHT22;10658;50.920;12.238;2022-12-29T17:48:39;8.40;99.90
21001;DHT22;10658;50.920;12.238;2022-12-29T17:53:51;8.50;99.90
21001;DHT22;10658;50.920;12.238;2022-12-29T17:58:23;8.50;99.90
21001;DHT22;10658;50.920;12.238;2022-12-29T18:02:44;8.50;99.90
21001;DHT22;10658;50.920;12.238;2022-12-29T18:07:11;8.70;99.90
21001;DHT22;10658;50.920;12.238;2022-12-29T18:11:27;8.80;99.90
21001;DHT22;10658;50.920;12.238;2022-12-29T18:15:42;8.90;99.90
21001;DHT22;10658;50.920;12.238;2022-12-29T18:19:44;9.10;99.90
21001;DHT22;10658;50.920;12.238;2022-12-29T18:23:51;9.20;99.90
21001;DHT22;10658;50.920;12.238;2022-12-29T18:32:31;9.30;99.90
21001;DHT22;10658;50.920;12.238;2022-12-29T18:37:17;9.20;99.90
21001;DHT22;10658;50.920;12.238;2022-12-29T18:41:26;9.20;99.90
21001;DHT22;10658;50.920;12.238;2022-12-29T18:46:00;9.10;99.90
21001;DHT22;10658;50.920;12.238;2022-12-29T18:50:30;9.00;99.90
21001;DHT22;10658;50.920;12.238;2022-12-29T18:59:09;8.90;99.90
21001;DHT22;10658;50.920;12.238;2022-12-29T19:03:35;8.80;99.90
21001;DHT22;10658;50.920;12.238;2022-12-29T19:07:49;8.80;99.90
21001;DHT22;10658;50.920;12.238;2022-12-29T19:16:22;8.80;99.90
21001;DHT22;10658;50.920;12.238;2022-12-29T19:25:14;8.70;99.90
21001;DHT22;10658;50.920;12.238;2022-12-29T19:29:27;8.70;99.90
21001;DHT22;10658;50.920;12.238;2022-12-29T19:33:43;8.70;99.90
21001;DHT22;10658;50.920;12.238;2022-12-29T19:38:00;8.70;99.90
21001;DHT22;10658;50.920;12.238;2022-12-29T19:42:10;8.60;99.90
21001;DHT22;10658;50.920;12.238;2022-12-29T19:46:22;8.60;99.90
21001;DHT22;10658;50.920;12.238;2022-12-29T19:50:29;8.50;99.90
21001;DHT22;10658;50.920;12.238;2022-12-29T19:54:55;8.40;99.90
21001;DHT22;10658;50.920;12.238;2022-12-29T19:59:42;8.30;99.90
21001;DHT22;10658;50.920;12.238;2022-12-29T20:03:24;8.30;99.90
21001;DHT22;10658;50.920;12.238;2022-12-29T20:07:31;8.10;99.90
21001;DHT22;10658;50.920;12.238;2022-12-29T20:11:32;8.10;99.90
21001;DHT22;10658;50.920;12.238;2022-12-29T20:15:47;8.00;99.90
21001;DHT22;10658;50.920;12.238;2022-12-29T20:19:50;7.90;99.90
21001;DHT22;10658;50.920;12.238;2022-12-29T20:23:55;7.90;99.90
21001;DHT22;10658;50.920;12.238;2022-12-29T20:33:28;7.80;99.90
21001;DHT22;10658;50.920;12.238;2022-12-29T20:37:36;7.70;99.90
21001;DHT22;10658;50.920;12.238;2022-12-29T20:41:37;7.70;99.90
21001;DHT22;10658;50.920;12.238;2022-12-29T20:45:41;7.60;99.90
21001;DHT22;10658;50.920;12.238;2022-12-29T20:49:57;7.50;99.90
21001;DHT22;10658;50.920;12.238;2022-12-29T20:54:13;7.30;99.90
21001;DHT22;10658;50.920;12.238;2022-12-29T20:58:41;7.20;99.90
21001;DHT22;10658;50.920;12.238;2022-12-29T21:03:18;7.00;99.90
21001;DHT22;10658;50.920;12.238;2022-12-29T21:07:32;7.00;99.90
21001;DHT22;10658;50.920;12.238;2022-12-29T21:11:57;7.10;99.90
21001;DHT22;10658;50.920;12.238;2022-12-29T21:16:14;7.00;99.90
21001;DHT22;10658;50.920;12.238;2022-12-29T21:20:28;7.10;99.90
21001;DHT22;10658;50.920;12.238;2022-12-29T21:24:37;7.10;99.90
21001;DHT22;10658;50.920;12.238;2022-12-29T21:28:48;7.10;99.90
21001;DHT22;10658;50.920;12.238;2022-12-29T21:33:34;6.90;99.90
21001;DHT22;10658;50.920;12.238;2022-12-29T21:37:39;6.70;99.90
21001;DHT22;10658;50.920;12.238;2022-12-29T21:41:52;6.70;99.90
21001;DHT22;10658;50.920;12.238;2022-12-29T21:46:35;6.70;99.90
21001;DHT22;10658;50.920;12.238;2022-12-29T21:51:05;6.80;99.90
21001;DHT22;10658;50.920;12.238;2022-12-29T21:55:25;6.70;99.90
21001;DHT22;10658;50.920;12.238;2022-12-29T21:59:39;6.80;99.90
21001;DHT22;10658;50.920;12.238;2022-12-29T22:04:07;6.70;99.90
21001;DHT22;10658;50.920;12.238;2022-12-29T22:08:44;6.90;99.90
21001;DHT22;10658;50.920;12.238;2022-12-29T22:13:44;7.00;99.90
21001;DHT22;10658;50.920;12.238;2022-12-29T22:17:57;7.00;99.90
21001;DHT22;10658;50.920;12.238;2022-12-29T22:22:05;7.00;99.90
21001;DHT22;10658;50.920;12.238;2022-12-29T22:26:18;7.00;99.90
21001;DHT22;10658;50.920;12.238;2022-12-29T22:30:35;6.80;99.90
21001;DHT22;10658;50.920;12.238;2022-12-29T22:34:58;6.80;99.90
21001;DHT22;10658;50.920;12.238;2022-12-29T22:39:03;6.90;99.90
21001;DHT22;10658;50.920;12.238;2022-12-29T22:43:09;7.00;99.90
21001;DHT22;10658;50.920;12.238;2022-12-29T22:47:21;6.90;99.90
21001;DHT22;10658;50.920;12.238;2022-12-29T22:51:39;6.90;99.90
21001;DHT22;10658;50.920;12.238;2022-12-29T22:55:40;6.90;99.90
21001;DHT22;10658;50.920;12.238;2022-12-29T22:59:41;7.00;99.90
21001;DHT22;10658;50.920;12.238;2022-12-29T23:03:57;7.20;99.90
21001;DHT22;10658;50.920;12.238;2022-12-29T23:08:12;7.30;99.90
21001;DHT22;10658;50.920;12.238;2022-12-29T23:12:16;7.40;99.90
21001;DHT22;10658;50.920;12.238;2022-12-29T23:16:20;7.50;99.90
21001;DHT22;10658;50.920;12.238;2022-12-29T23:20:53;7.60;99.90
21001;DHT22;10658;50.920;12.238;2022-12-29T23:25:12;7.70;99.90
21001;DHT22;10658;50.920;12.238;2022-12-29T23:29:18;7.80;99.90
21001;DHT22;10658;50.920;12.238;2022-12-29T23:33:30;7.90;99.90
21001;DHT22;10658;50.920;12.238;2022-12-29T23:37:34;7.90;99.90
21001;DHT22;10658;50.920;12.238;2022-12-29T23:42:03;7.90;99.90
21001;DHT22;10658;50.920;12.238;2022-12-29T23:46:28;7.80;99.90
21001;DHT22;10658;50.920;12.238;2022-12-29T23:50:34;7.70;99.90
21001;DHT22;10658;50.920;12.238;2022-12-29T23:54:47;7.70;99.90
21001;DHT22;10658;50.920;12.238;2022-12-29T23:59:01;7.70;99.90
